createdAt,value
2023-03-22T00:01:02.085Z,31.67
2023-03-22T00:03:10.035Z,31.30
2023-03-22T00:05:16.962Z,31.05
2023-03-22T00:07:25.933Z,31.00
2023-03-22T00:09:32.866Z,30.73
2023-03-22T00:11:40.254Z,30.63
2023-03-22T00:13:48.148Z,28.40
2023-03-22T00:15:58.753Z,29.88
2023-03-22T00:18:07.061Z,29.95
2023-03-22T00:20:15.270Z,29.88
2023-03-22T00:22:22.961Z,30.55
2023-03-22T00:24:31.627Z,30.75
2023-03-22T00:26:38.917Z,29.60
2023-03-22T00:28:46.515Z,29.25
2023-03-22T00:30:59.220Z,30.45
2023-03-22T00:33:07.576Z,29.70
2023-03-22T00:35:15.370Z,29.60
2023-03-22T00:37:22.605Z,29.60
2023-03-22T00:39:32.346Z,28.92
2023-03-22T00:41:39.328Z,29.38
2023-03-22T00:43:46.786Z,29.52
2023-03-22T00:45:53.777Z,29.70
2023-03-22T00:48:01.058Z,30.33
2023-03-22T00:50:10.612Z,29.67
2023-03-22T00:52:18.206Z,28.20
2023-03-22T00:54:25.539Z,29.08
2023-03-22T00:56:34.974Z,29.45
2023-03-22T00:58:50.400Z,28.23
2023-03-22T01:00:57.932Z,29.83
2023-03-22T01:03:06.118Z,28.30
2023-03-22T01:05:16.764Z,28.92
2023-03-22T01:07:25.163Z,28.92
2023-03-22T01:09:34.799Z,27.17
2023-03-22T01:11:43.526Z,27.42
2023-03-22T01:13:51.472Z,28.63
2023-03-22T01:15:58.446Z,28.73
2023-03-22T01:18:06.146Z,27.33
2023-03-22T01:20:14.811Z,28.17
2023-03-22T01:22:22.293Z,28.48
2023-03-22T01:24:29.781Z,30.40
2023-03-22T01:26:37.843Z,29.55
2023-03-22T01:28:46.548Z,29.98
2023-03-22T01:30:54.574Z,29.48
2023-03-22T01:33:01.578Z,29.35
2023-03-22T01:35:11.544Z,28.90
2023-03-22T01:37:20.190Z,29.38
2023-03-22T01:39:28.348Z,30.38
2023-03-22T01:41:39.374Z,30.70
2023-03-22T01:44:16.416Z,29.33
2023-03-22T01:48:35.196Z,28.83
2023-03-22T01:50:45.739Z,29.95
2023-03-22T01:52:55.114Z,30.02
2023-03-22T01:55:10.387Z,28.75
2023-03-22T01:57:26.632Z,28.27
2023-03-22T01:59:36.327Z,29.48
2023-03-22T02:01:56.199Z,29.45
2023-03-22T02:04:05.948Z,28.27
2023-03-22T02:06:13.428Z,29.38
2023-03-22T02:08:21.126Z,29.55
2023-03-22T02:10:45.764Z,28.13
2023-03-22T02:13:08.458Z,29.45
2023-03-22T02:15:36.680Z,30.67
2023-03-22T02:18:00.815Z,29.27
2023-03-22T02:20:43.070Z,28.38
2023-03-22T02:23:46.208Z,30.95
2023-03-22T02:26:40.239Z,29.58
2023-03-22T02:28:56.228Z,29.52
2023-03-22T02:31:28.864Z,28.50
2023-03-22T02:34:00.715Z,28.95
2023-03-22T02:36:43.736Z,27.90
2023-03-22T02:39:15.856Z,28.90
2023-03-22T02:41:31.696Z,28.75
2023-03-22T02:43:47.219Z,27.63
2023-03-22T02:45:58.750Z,28.52
2023-03-22T02:48:12.635Z,27.85
2023-03-22T02:50:25.453Z,27.55
2023-03-22T02:52:40.161Z,27.98
2023-03-22T02:54:54.203Z,26.80
2023-03-22T02:57:06.405Z,25.95
2023-03-22T02:59:14.867Z,27.70
2023-03-22T03:01:26.197Z,27.95
2023-03-22T03:03:34.806Z,26.58
2023-03-22T03:05:45.624Z,26.20
2023-03-22T03:07:57.473Z,27.30
2023-03-22T03:10:07.673Z,27.17
2023-03-22T03:12:21.610Z,27.30
2023-03-22T03:14:33.240Z,26.15
2023-03-22T03:16:41.231Z,27.65
2023-03-22T03:18:54.320Z,26.15
2023-03-22T03:21:08.456Z,25.85
2023-03-22T03:23:27.328Z,24.90
2023-03-22T03:25:44.333Z,25.40
2023-03-22T03:27:58.572Z,25.88
2023-03-22T03:30:12.460Z,26.77
2023-03-22T03:32:29.830Z,26.33
2023-03-22T03:34:43.112Z,24.77
2023-03-22T03:36:56.844Z,25.58
2023-03-22T03:39:05.661Z,26.40
2023-03-22T03:41:17.850Z,25.35
2023-03-22T03:43:27.703Z,24.85
2023-03-22T03:45:35.605Z,23.70
2023-03-22T03:47:43.701Z,24.10
2023-03-22T03:49:50.736Z,23.77
2023-03-22T03:51:58.787Z,24.65
2023-03-22T03:54:05.966Z,22.02
2023-03-22T03:56:15.708Z,23.35
2023-03-22T03:58:26.475Z,24.73
2023-03-22T04:00:34.016Z,24.50
2023-03-22T04:03:10.075Z,23.98
2023-03-22T04:05:44.904Z,24.48
2023-03-22T04:07:52.342Z,24.25
2023-03-22T04:10:00.175Z,20.85
2023-03-22T04:12:13.478Z,22.30
2023-03-22T04:14:23.513Z,22.40
2023-03-22T04:16:32.613Z,22.95
2023-03-22T04:18:40.538Z,22.17
2023-03-22T04:20:50.639Z,21.48
2023-03-22T04:22:59.058Z,22.77
2023-03-22T04:25:07.052Z,22.00
2023-03-22T04:27:15.767Z,22.63
2023-03-22T04:29:37.644Z,22.23
2023-03-22T04:32:10.837Z,22.13
2023-03-22T04:34:21.711Z,22.40
2023-03-22T04:36:42.197Z,21.20
2023-03-22T04:39:05.300Z,20.85
2023-03-22T04:41:12.584Z,21.42
2023-03-22T04:43:27.304Z,22.17
2023-03-22T04:45:39.957Z,21.95
2023-03-22T04:47:47.115Z,20.95
2023-03-22T04:49:54.262Z,20.75
2023-03-22T04:52:02.316Z,21.00
2023-03-22T04:54:16.721Z,21.25
2023-03-22T04:56:25.748Z,21.30
2023-03-22T04:58:34.777Z,20.55
2023-03-22T05:00:43.126Z,20.70
2023-03-22T05:02:51.988Z,21.38
2023-03-22T05:05:21.046Z,21.48
2023-03-22T05:07:30.991Z,20.50
2023-03-22T05:09:40.377Z,20.95
2023-03-22T05:11:49.355Z,21.70
2023-03-22T05:14:24.382Z,20.60
2023-03-22T05:16:31.640Z,20.40
2023-03-22T05:18:43.299Z,20.38
2023-03-22T05:20:52.030Z,20.58
2023-03-22T05:23:03.583Z,20.48
2023-03-22T05:25:13.497Z,20.40
2023-03-22T05:27:32.352Z,20.13
2023-03-22T05:29:47.877Z,19.48
2023-03-22T05:32:06.021Z,19.88
2023-03-22T05:34:16.888Z,18.85
2023-03-22T05:36:25.621Z,17.92
2023-03-22T05:38:55.466Z,17.65
2023-03-22T05:41:03.009Z,18.40
2023-03-22T05:43:12.084Z,17.73
2023-03-22T05:45:25.668Z,17.23
2023-03-22T05:47:45.372Z,17.15
2023-03-22T05:49:56.723Z,17.63
2023-03-22T05:52:07.014Z,17.30
2023-03-22T05:54:34.330Z,16.55
2023-03-22T05:56:42.536Z,17.27
2023-03-22T05:58:50.999Z,16.90
2023-03-22T06:01:07.040Z,15.57
2023-03-22T06:03:26.213Z,16.75
2023-03-22T06:05:43.268Z,15.73
2023-03-22T06:07:50.124Z,15.15
2023-03-22T06:09:59.322Z,14.77
2023-03-22T06:12:11.106Z,14.68
2023-03-22T06:14:19.721Z,15.57
2023-03-22T06:16:54.760Z,15.70
2023-03-22T06:19:02.195Z,14.90
2023-03-22T06:21:09.840Z,15.13
2023-03-22T06:23:17.428Z,14.52
2023-03-22T06:25:26.255Z,13.15
2023-03-22T06:27:35.067Z,14.43
2023-03-22T06:29:41.892Z,14.25
2023-03-22T06:31:49.481Z,14.65
2023-03-22T06:33:58.248Z,13.60
2023-03-22T06:36:11.981Z,13.95
2023-03-22T06:38:36.523Z,13.80
2023-03-22T06:40:43.751Z,13.35
2023-03-22T06:42:51.340Z,12.32
2023-03-22T06:44:59.606Z,13.65
2023-03-22T06:47:11.653Z,12.73
2023-03-22T06:49:27.529Z,13.00
2023-03-22T06:51:36.353Z,12.80
2023-03-22T06:53:43.120Z,13.38
2023-03-22T06:55:50.712Z,13.45
2023-03-22T06:57:59.580Z,13.70
2023-03-22T07:00:07.493Z,13.00
2023-03-22T07:02:15.685Z,13.65
2023-03-22T07:04:43.710Z,13.50
2023-03-22T07:06:50.583Z,13.18
2023-03-22T07:08:58.273Z,14.13
2023-03-22T07:11:10.523Z,12.75
2023-03-22T07:13:18.019Z,13.35
2023-03-22T07:15:27.140Z,12.90
2023-03-22T07:17:54.955Z,13.10
2023-03-22T07:20:04.960Z,13.48
2023-03-22T07:22:13.704Z,13.15
2023-03-22T07:24:21.946Z,12.63
2023-03-22T07:26:31.567Z,13.48
2023-03-22T07:28:42.383Z,12.88
2023-03-22T07:30:51.664Z,12.75
2023-03-22T07:32:59.459Z,12.85
2023-03-22T07:35:09.149Z,12.77
2023-03-22T07:37:16.384Z,11.65
2023-03-22T07:39:25.825Z,11.95
2023-03-22T07:41:33.619Z,13.60
2023-03-22T07:44:04.817Z,12.90
2023-03-22T07:46:23.476Z,12.48
2023-03-22T07:48:32.828Z,13.45
2023-03-22T07:51:17.979Z,12.20
2023-03-22T07:53:25.771Z,13.15
2023-03-22T07:55:32.852Z,12.70
2023-03-22T07:57:41.432Z,11.80
2023-03-22T07:59:49.109Z,11.98
2023-03-22T08:01:57.057Z,11.95
2023-03-22T08:04:08.232Z,11.65
2023-03-22T08:06:34.714Z,11.30
2023-03-22T08:08:41.946Z,12.18
2023-03-22T08:10:53.584Z,12.25
2023-03-22T08:13:00.611Z,12.05
2023-03-22T08:15:08.103Z,11.07
2023-03-22T08:17:15.747Z,11.98
2023-03-22T08:19:23.231Z,12.20
2023-03-22T08:21:30.666Z,11.40
2023-03-22T08:23:42.125Z,12.85
2023-03-22T08:25:55.064Z,12.65
2023-03-22T08:28:02.656Z,12.48
2023-03-22T08:30:10.917Z,12.73
2023-03-22T08:32:19.283Z,11.95
2023-03-22T08:34:27.426Z,12.77
2023-03-22T08:36:35.172Z,12.20
2023-03-22T08:38:46.147Z,11.75
2023-03-22T08:40:56.547Z,12.52
2023-03-22T08:43:05.319Z,12.60
2023-03-22T08:45:13.470Z,13.18
2023-03-22T08:47:27.619Z,13.25
2023-03-22T08:49:39.460Z,12.63
2023-03-22T08:51:53.707Z,12.70
2023-03-22T08:54:35.346Z,12.98
2023-03-22T08:56:45.289Z,12.45
2023-03-22T08:59:04.963Z,12.70
2023-03-22T09:01:22.019Z,12.73
2023-03-22T09:03:35.811Z,12.32
2023-03-22T09:05:42.791Z,13.05
2023-03-22T09:07:49.868Z,14.30
2023-03-22T09:10:07.287Z,13.60
2023-03-22T09:12:17.633Z,13.25
2023-03-22T09:14:25.032Z,14.32
2023-03-22T09:16:34.906Z,13.23
2023-03-22T09:18:42.875Z,13.35
2023-03-22T09:20:55.385Z,12.93
2023-03-22T09:23:07.589Z,14.50
2023-03-22T09:25:16.970Z,13.90
2023-03-22T09:27:27.575Z,14.20
2023-03-22T09:29:34.964Z,14.23
2023-03-22T09:31:49.724Z,13.88
2023-03-22T09:34:01.048Z,14.50
2023-03-22T09:36:08.747Z,13.25
2023-03-22T09:38:17.255Z,14.40
2023-03-22T09:40:31.918Z,14.43
2023-03-22T09:42:44.882Z,13.07
2023-03-22T09:44:55.645Z,14.25
2023-03-22T09:47:08.460Z,14.90
2023-03-22T09:49:19.790Z,14.90
2023-03-22T09:51:43.564Z,15.18
2023-03-22T09:53:50.709Z,14.13
2023-03-22T09:56:05.143Z,15.68
2023-03-22T09:58:22.258Z,14.05
2023-03-22T10:00:40.420Z,13.98
2023-03-22T10:03:01.655Z,14.15
2023-03-22T10:05:20.715Z,14.65
2023-03-22T10:07:34.047Z,14.88
2023-03-22T10:09:47.526Z,14.05
2023-03-22T10:12:06.019Z,14.20
2023-03-22T10:14:38.648Z,14.63
2023-03-22T10:16:48.136Z,14.07
2023-03-22T10:19:00.089Z,14.32
2023-03-22T10:21:09.214Z,13.90
2023-03-22T10:23:21.142Z,15.90
2023-03-22T10:25:36.567Z,13.75
2023-03-22T10:27:47.130Z,14.50
2023-03-22T10:29:58.575Z,14.50
2023-03-22T10:32:16.961Z,13.63
2023-03-22T10:34:29.109Z,14.95
2023-03-22T10:36:39.205Z,14.38
2023-03-22T10:38:51.453Z,14.57
2023-03-22T10:41:01.676Z,16.20
2023-03-22T10:43:16.157Z,16.48
2023-03-22T10:45:24.312Z,15.85
2023-03-22T10:47:35.819Z,15.23
2023-03-22T10:51:54.157Z,14.55
2023-03-22T10:54:03.695Z,14.50
2023-03-22T10:56:16.878Z,14.40
2023-03-22T10:58:31.377Z,13.70
2023-03-22T11:00:42.248Z,13.55
2023-03-22T11:02:54.444Z,14.50
2023-03-22T11:05:03.905Z,13.85
2023-03-22T11:07:17.810Z,14.80
2023-03-22T11:09:26.274Z,13.90
2023-03-22T11:11:35.411Z,14.52
2023-03-22T11:13:44.576Z,14.25
2023-03-22T11:15:57.544Z,14.65
2023-03-22T11:18:08.769Z,14.75
2023-03-22T11:20:20.286Z,14.48
2023-03-22T11:22:34.345Z,13.68
2023-03-22T11:24:41.218Z,14.07
2023-03-22T11:27:05.928Z,13.90
2023-03-22T11:29:21.594Z,14.57
2023-03-22T11:31:28.940Z,14.18
2023-03-22T11:33:36.314Z,14.43
2023-03-22T11:35:47.049Z,14.88
2023-03-22T11:37:56.528Z,14.85
2023-03-22T11:40:11.838Z,14.48
2023-03-22T11:42:23.885Z,13.95
2023-03-22T11:44:38.612Z,14.07
2023-03-22T11:46:55.451Z,13.63
2023-03-22T11:49:04.876Z,14.02
2023-03-22T11:51:14.114Z,14.32
2023-03-22T11:53:25.018Z,14.00
2023-03-22T11:55:34.373Z,14.23
2023-03-22T11:57:41.701Z,14.32
2023-03-22T11:59:57.997Z,15.23
2023-03-22T12:02:16.388Z,15.25
2023-03-22T12:04:29.758Z,15.40
2023-03-22T12:06:42.888Z,14.82
2023-03-22T12:08:54.212Z,15.63
2023-03-22T12:11:07.956Z,15.98
2023-03-22T12:13:22.299Z,16.08
2023-03-22T12:15:34.862Z,16.05
2023-03-22T12:17:48.432Z,16.75
2023-03-22T12:20:03.815Z,16.15
2023-03-22T12:22:15.994Z,15.57
2023-03-22T12:24:29.955Z,16.65
2023-03-22T12:26:38.672Z,16.52
2023-03-22T12:28:53.695Z,17.27
2023-03-22T12:31:04.700Z,16.13
2023-03-22T12:33:19.540Z,16.35
2023-03-22T12:35:29.824Z,17.15
2023-03-22T12:37:38.956Z,16.50
2023-03-22T12:39:51.755Z,15.50
2023-03-22T12:42:04.374Z,16.33
2023-03-22T12:44:18.774Z,15.52
2023-03-22T12:46:30.240Z,17.02
2023-03-22T12:48:44.025Z,16.08
2023-03-22T12:50:56.597Z,16.15
2023-03-22T12:53:05.481Z,16.30
2023-03-22T12:55:21.109Z,16.20
2023-03-22T12:57:28.897Z,16.80
2023-03-22T12:59:37.016Z,17.67
2023-03-22T13:01:53.248Z,16.35
2023-03-22T13:04:00.849Z,17.08
2023-03-22T13:06:10.222Z,17.00
2023-03-22T13:08:21.513Z,17.70
2023-03-22T13:13:14.314Z,18.77
2023-03-22T13:15:41.784Z,16.98
2023-03-22T13:17:52.096Z,17.95
2023-03-22T13:20:02.950Z,18.38
2023-03-22T13:22:25.384Z,18.02
2023-03-22T13:24:34.357Z,18.40
2023-03-22T13:26:46.453Z,19.55
2023-03-22T13:29:00.467Z,18.55
2023-03-22T13:31:07.950Z,17.98
2023-03-22T13:33:24.849Z,18.75
2023-03-22T13:35:43.077Z,18.30
2023-03-22T13:37:52.116Z,17.88
2023-03-22T13:40:03.032Z,18.25
2023-03-22T13:42:22.257Z,18.38
2023-03-22T13:44:33.310Z,18.38
2023-03-22T13:46:52.864Z,18.63
2023-03-22T13:49:45.788Z,18.42
2023-03-22T13:51:54.147Z,17.92
2023-03-22T13:54:06.396Z,18.63
2023-03-22T13:56:16.604Z,18.70
2023-03-22T13:58:39.959Z,17.95
2023-03-22T14:00:56.034Z,18.13
2023-03-22T14:03:05.404Z,18.45
2023-03-22T14:05:19.475Z,18.33
2023-03-22T14:07:29.886Z,17.98
2023-03-22T14:09:39.177Z,18.88
2023-03-22T14:11:52.037Z,18.40
2023-03-22T14:14:03.152Z,18.45
2023-03-22T14:16:15.118Z,17.83
2023-03-22T14:18:26.853Z,18.88
2023-03-22T14:20:39.409Z,18.63
